sensor_id;sensor_type;location;lat;lon;timestamp;P1;durP1;ratioP1;P2;durP2;ratioP2
54167;SDS011;40072;50.958;3.592;2022-09-09T00:00:35;7.68;;;1.45;;
54167;SDS011;40072;50.958;3.592;2022-09-09T00:03:18;7.63;;;1.90;;
54167;SDS011;40072;50.958;3.592;2022-09-09T00:05:59;8.05;;;1.90;;
54167;SDS011;40072;50.958;3.592;2022-09-09T00:08:38;8.48;;;1.80;;
54167;SDS011;40072;50.958;3.592;2022-09-09T00:11:15;8.35;;;2.17;;
54167;SDS011;40072;50.958;3.592;2022-09-09T00:13:48;13.05;;;1.70;;
54167;SDS011;40072;50.958;3.592;2022-09-09T00:21:39;10.05;;;1.90;;
54167;SDS011;40072;50.958;3.592;2022-09-09T00:24:23;8.05;;;1.60;;
54167;SDS011;40072;50.958;3.592;2022-09-09T00:26:53;8.48;;;2.10;;
54167;SDS011;40072;50.958;3.592;2022-09-09T00:32:04;14.68;;;2.13;;
54167;SDS011;40072;50.958;3.592;2022-09-09T00:34:39;11.27;;;2.17;;
54167;SDS011;40072;50.958;3.592;2022-09-09T00:37:18;7.55;;;1.65;;
54167;SDS011;40072;50.958;3.592;2022-09-09T00:39:46;8.00;;;1.60;;
54167;SDS011;40072;50.958;3.592;2022-09-09T00:44:59;9.15;;;1.80;;
54167;SDS011;40072;50.958;3.592;2022-09-09T00:47:40;5.88;;;1.90;;
54167;SDS011;40072;50.958;3.592;2022-09-09T00:56:25;5.43;;;1.70;;
54167;SDS011;40072;50.958;3.592;2022-09-09T00:59:16;11.60;;;1.90;;
54167;SDS011;40072;50.958;3.592;2022-09-09T01:05:07;6.93;;;1.85;;
54167;SDS011;40072;50.958;3.592;2022-09-09T01:07:38;6.47;;;1.67;;
54167;SDS011;40072;50.958;3.592;2022-09-09T01:10:23;6.60;;;1.70;;
54167;SDS011;40072;50.958;3.592;2022-09-09T01:13:02;12.30;;;1.60;;
54167;SDS011;40072;50.958;3.592;2022-09-09T01:15:37;4.65;;;1.45;;
54167;SDS011;40072;50.958;3.592;2022-09-09T01:18:12;9.93;;;1.83;;
54167;SDS011;40072;50.958;3.592;2022-09-09T01:28:49;7.28;;;2.15;;
54167;SDS011;40072;50.958;3.592;2022-09-09T01:31:26;9.23;;;2.20;;
54167;SDS011;40072;50.958;3.592;2022-09-09T01:33:55;6.32;;;1.30;;
54167;SDS011;40072;50.958;3.592;2022-09-09T01:39:08;5.15;;;1.33;;
54167;SDS011;40072;50.958;3.592;2022-09-09T01:41:35;8.57;;;1.67;;
54167;SDS011;40072;50.958;3.592;2022-09-09T01:44:00;8.35;;;1.58;;
54167;SDS011;40072;50.958;3.592;2022-09-09T01:46:27;6.13;;;1.35;;
54167;SDS011;40072;50.958;3.592;2022-09-09T01:48:55;6.07;;;1.83;;
54167;SDS011;40072;50.958;3.592;2022-09-09T01:51:22;7.35;;;1.58;;
54167;SDS011;40072;50.958;3.592;2022-09-09T01:53:48;13.43;;;1.60;;
54167;SDS011;40072;50.958;3.592;2022-09-09T01:56:17;8.50;;;1.50;;
54167;SDS011;40072;50.958;3.592;2022-09-09T01:59:15;11.65;;;2.17;;
54167;SDS011;40072;50.958;3.592;2022-09-09T02:04:41;6.50;;;1.48;;
54167;SDS011;40072;50.958;3.592;2022-09-09T02:09:56;13.00;;;1.83;;
54167;SDS011;40072;50.958;3.592;2022-09-09T02:12:26;7.28;;;1.60;;
54167;SDS011;40072;50.958;3.592;2022-09-09T02:14:56;8.43;;;1.77;;
54167;SDS011;40072;50.958;3.592;2022-09-09T02:17:29;7.30;;;1.52;;
54167;SDS011;40072;50.958;3.592;2022-09-09T02:20:10;13.07;;;1.80;;
54167;SDS011;40072;50.958;3.592;2022-09-09T02:22:39;10.53;;;2.43;;
54167;SDS011;40072;50.958;3.592;2022-09-09T02:25:09;13.00;;;1.80;;
54167;SDS011;40072;50.958;3.592;2022-09-09T02:27:37;13.00;;;2.05;;
54167;SDS011;40072;50.958;3.592;2022-09-09T02:30:05;8.95;;;1.50;;
54167;SDS011;40072;50.958;3.592;2022-09-09T02:32:32;14.30;;;1.98;;
54167;SDS011;40072;50.958;3.592;2022-09-09T02:35:05;9.00;;;2.08;;
54167;SDS011;40072;50.958;3.592;2022-09-09T02:37:37;15.80;;;2.40;;
54167;SDS011;40072;50.958;3.592;2022-09-09T02:40:05;10.25;;;2.65;;
54167;SDS011;40072;50.958;3.592;2022-09-09T02:42:40;8.35;;;1.80;;
54167;SDS011;40072;50.958;3.592;2022-09-09T02:45:06;13.32;;;2.35;;
54167;SDS011;40072;50.958;3.592;2022-09-09T02:50:09;11.05;;;2.53;;
54167;SDS011;40072;50.958;3.592;2022-09-09T02:55:27;11.98;;;2.05;;
54167;SDS011;40072;50.958;3.592;2022-09-09T02:58:08;10.25;;;2.05;;
54167;SDS011;40072;50.958;3.592;2022-09-09T03:00:37;13.95;;;2.35;;
54167;SDS011;40072;50.958;3.592;2022-09-09T03:03:05;14.07;;;1.90;;
54167;SDS011;40072;50.958;3.592;2022-09-09T03:05:31;13.30;;;2.08;;
54167;SDS011;40072;50.958;3.592;2022-09-09T03:07:57;13.30;;;2.33;;
54167;SDS011;40072;50.958;3.592;2022-09-09T03:10:23;12.13;;;2.08;;
54167;SDS011;40072;50.958;3.592;2022-09-09T03:12:49;15.25;;;2.72;;
54167;SDS011;40072;50.958;3.592;2022-09-09T03:15:15;11.60;;;2.08;;
54167;SDS011;40072;50.958;3.592;2022-09-09T03:17:41;9.85;;;1.95;;
54167;SDS011;40072;50.958;3.592;2022-09-09T03:20:07;10.30;;;2.15;;
54167;SDS011;40072;50.958;3.592;2022-09-09T03:22:33;11.50;;;2.38;;
54167;SDS011;40072;50.958;3.592;2022-09-09T03:25:00;12.05;;;1.92;;
54167;SDS011;40072;50.958;3.592;2022-09-09T03:27:27;14.70;;;3.05;;
54167;SDS011;40072;50.958;3.592;2022-09-09T03:29:53;12.18;;;2.20;;
54167;SDS011;40072;50.958;3.592;2022-09-09T03:32:19;14.07;;;2.45;;
54167;SDS011;40072;50.958;3.592;2022-09-09T03:34:47;17.90;;;2.50;;
54167;SDS011;40072;50.958;3.592;2022-09-09T03:37:15;17.75;;;2.55;;
54167;SDS011;40072;50.958;3.592;2022-09-09T03:39:42;11.77;;;2.28;;
54167;SDS011;40072;50.958;3.592;2022-09-09T03:42:08;16.55;;;2.63;;
54167;SDS011;40072;50.958;3.592;2022-09-09T03:44:35;12.27;;;2.33;;
54167;SDS011;40072;50.958;3.592;2022-09-09T03:47:01;12.45;;;2.05;;
54167;SDS011;40072;50.958;3.592;2022-09-09T03:49:26;20.08;;;2.78;;
54167;SDS011;40072;50.958;3.592;2022-09-09T03:51:54;11.93;;;2.70;;
54167;SDS011;40072;50.958;3.592;2022-09-09T03:54:24;20.20;;;2.88;;
54167;SDS011;40072;50.958;3.592;2022-09-09T03:56:50;10.48;;;2.28;;
54167;SDS011;40072;50.958;3.592;2022-09-09T03:59:16;20.30;;;2.67;;
54167;SDS011;40072;50.958;3.592;2022-09-09T04:01:42;13.55;;;2.17;;
54167;SDS011;40072;50.958;3.592;2022-09-09T04:04:09;15.55;;;2.70;;
54167;SDS011;40072;50.958;3.592;2022-09-09T04:06:35;16.77;;;2.85;;
54167;SDS011;40072;50.958;3.592;2022-09-09T04:09:01;11.10;;;2.15;;
54167;SDS011;40072;50.958;3.592;2022-09-09T04:11:28;12.18;;;2.15;;
54167;SDS011;40072;50.958;3.592;2022-09-09T04:13:54;15.82;;;2.72;;
54167;SDS011;40072;50.958;3.592;2022-09-09T04:16:20;12.70;;;2.80;;
54167;SDS011;40072;50.958;3.592;2022-09-09T04:18:45;13.25;;;2.47;;
54167;SDS011;40072;50.958;3.592;2022-09-09T04:21:11;18.73;;;3.05;;
54167;SDS011;40072;50.958;3.592;2022-09-09T04:23:37;15.77;;;3.25;;
54167;SDS011;40072;50.958;3.592;2022-09-09T04:26:04;17.77;;;3.15;;
54167;SDS011;40072;50.958;3.592;2022-09-09T04:28:31;20.23;;;3.22;;
54167;SDS011;40072;50.958;3.592;2022-09-09T04:31:06;14.45;;;3.10;;
54167;SDS011;40072;50.958;3.592;2022-09-09T04:33:34;10.88;;;2.50;;
54167;SDS011;40072;50.958;3.592;2022-09-09T04:36:00;17.13;;;3.05;;
54167;SDS011;40072;50.958;3.592;2022-09-09T04:38:25;12.63;;;2.75;;
54167;SDS011;40072;50.958;3.592;2022-09-09T04:40:51;12.20;;;2.50;;
54167;SDS011;40072;50.958;3.592;2022-09-09T04:43:18;11.88;;;2.85;;
54167;SDS011;40072;50.958;3.592;2022-09-09T04:45:48;15.27;;;2.75;;
54167;SDS011;40072;50.958;3.592;2022-09-09T04:48:16;13.02;;;2.97;;
54167;SDS011;40072;50.958;3.592;2022-09-09T04:50:42;18.70;;;2.97;;
54167;SDS011;40072;50.958;3.592;2022-09-09T04:53:07;11.93;;;2.55;;
54167;SDS011;40072;50.958;3.592;2022-09-09T04:55:33;13.57;;;2.30;;
54167;SDS011;40072;50.958;3.592;2022-09-09T04:58:06;11.77;;;2.13;;
54167;SDS011;40072;50.958;3.592;2022-09-09T05:00:36;17.20;;;2.90;;
54167;SDS011;40072;50.958;3.592;2022-09-09T05:03:06;18.73;;;2.83;;
54167;SDS011;40072;50.958;3.592;2022-09-09T05:05:33;19.70;;;3.28;;
54167;SDS011;40072;50.958;3.592;2022-09-09T05:08:04;16.15;;;2.80;;
54167;SDS011;40072;50.958;3.592;2022-09-09T05:10:32;9.93;;;2.80;;
54167;SDS011;40072;50.958;3.592;2022-09-09T05:12:58;18.15;;;2.80;;
54167;SDS011;40072;50.958;3.592;2022-09-09T05:15:24;13.35;;;2.63;;
54167;SDS011;40072;50.958;3.592;2022-09-09T05:17:50;20.63;;;2.55;;
54167;SDS011;40072;50.958;3.592;2022-09-09T05:20:17;14.90;;;2.58;;
54167;SDS011;40072;50.958;3.592;2022-09-09T05:22:43;19.00;;;2.92;;
54167;SDS011;40072;50.958;3.592;2022-09-09T05:25:09;13.80;;;2.47;;
54167;SDS011;40072;50.958;3.592;2022-09-09T05:27:34;20.52;;;3.08;;
54167;SDS011;40072;50.958;3.592;2022-09-09T05:30:00;20.60;;;2.72;;
54167;SDS011;40072;50.958;3.592;2022-09-09T05:32:26;20.58;;;3.03;;
54167;SDS011;40072;50.958;3.592;2022-09-09T05:34:52;16.73;;;2.80;;
54167;SDS011;40072;50.958;3.592;2022-09-09T05:37:18;15.07;;;2.28;;
54167;SDS011;40072;50.958;3.592;2022-09-09T05:39:44;15.52;;;2.85;;
54167;SDS011;40072;50.958;3.592;2022-09-09T05:42:10;26.27;;;3.17;;
54167;SDS011;40072;50.958;3.592;2022-09-09T05:44:35;13.88;;;3.13;;
54167;SDS011;40072;50.958;3.592;2022-09-09T05:47:02;23.23;;;3.15;;
54167;SDS011;40072;50.958;3.592;2022-09-09T05:49:27;13.50;;;2.53;;
54167;SDS011;40072;50.958;3.592;2022-09-09T05:51:53;21.83;;;3.35;;
54167;SDS011;40072;50.958;3.592;2022-09-09T05:54:19;15.50;;;2.63;;
54167;SDS011;40072;50.958;3.592;2022-09-09T05:56:44;14.13;;;2.85;;
54167;SDS011;40072;50.958;3.592;2022-09-09T05:59:10;24.88;;;3.30;;
54167;SDS011;40072;50.958;3.592;2022-09-09T06:01:37;15.40;;;3.83;;
54167;SDS011;40072;50.958;3.592;2022-09-09T06:04:05;18.13;;;3.00;;
54167;SDS011;40072;50.958;3.592;2022-09-09T06:06:33;17.13;;;3.20;;
54167;SDS011;40072;50.958;3.592;2022-09-09T06:09:02;14.50;;;2.70;;
54167;SDS011;40072;50.958;3.592;2022-09-09T06:11:31;15.82;;;2.72;;
54167;SDS011;40072;50.958;3.592;2022-09-09T06:13:58;21.73;;;3.60;;
54167;SDS011;40072;50.958;3.592;2022-09-09T06:16:24;20.27;;;3.28;;
54167;SDS011;40072;50.958;3.592;2022-09-09T06:18:55;26.88;;;4.22;;
54167;SDS011;40072;50.958;3.592;2022-09-09T06:21:29;18.60;;;3.58;;
54167;SDS011;40072;50.958;3.592;2022-09-09T06:23:57;17.88;;;2.88;;
54167;SDS011;40072;50.958;3.592;2022-09-09T06:26:28;21.23;;;2.75;;
54167;SDS011;40072;50.958;3.592;2022-09-09T06:28:55;29.75;;;3.45;;
54167;SDS011;40072;50.958;3.592;2022-09-09T06:31:23;14.85;;;3.35;;
54167;SDS011;40072;50.958;3.592;2022-09-09T06:33:55;19.70;;;3.50;;
54167;SDS011;40072;50.958;3.592;2022-09-09T06:36:26;19.33;;;3.47;;
54167;SDS011;40072;50.958;3.592;2022-09-09T06:38:53;27.92;;;3.83;;
54167;SDS011;40072;50.958;3.592;2022-09-09T06:41:20;16.23;;;2.67;;
54167;SDS011;40072;50.958;3.592;2022-09-09T06:43:47;16.70;;;2.78;;
54167;SDS011;40072;50.958;3.592;2022-09-09T06:46:14;14.68;;;3.10;;
54167;SDS011;40072;50.958;3.592;2022-09-09T06:48:44;23.40;;;3.03;;
54167;SDS011;40072;50.958;3.592;2022-09-09T06:51:11;11.88;;;2.67;;
54167;SDS011;40072;50.958;3.592;2022-09-09T06:53:39;17.43;;;3.13;;
54167;SDS011;40072;50.958;3.592;2022-09-09T06:58:55;13.80;;;2.70;;
54167;SDS011;40072;50.958;3.592;2022-09-09T07:01:26;11.90;;;3.63;;
54167;SDS011;40072;50.958;3.592;2022-09-09T07:03:54;13.05;;;2.72;;
54167;SDS011;40072;50.958;3.592;2022-09-09T07:06:23;8.82;;;2.25;;
54167;SDS011;40072;50.958;3.592;2022-09-09T07:08:51;16.35;;;3.22;;
54167;SDS011;40072;50.958;3.592;2022-09-09T07:11:18;17.80;;;2.97;;
54167;SDS011;40072;50.958;3.592;2022-09-09T07:13:45;13.60;;;2.95;;
54167;SDS011;40072;50.958;3.592;2022-09-09T07:16:12;19.38;;;3.00;;
54167;SDS011;40072;50.958;3.592;2022-09-09T07:18:40;14.50;;;2.50;;
54167;SDS011;40072;50.958;3.592;2022-09-09T07:21:07;18.35;;;2.88;;
54167;SDS011;40072;50.958;3.592;2022-09-09T07:23:35;13.38;;;2.78;;
54167;SDS011;40072;50.958;3.592;2022-09-09T07:26:01;12.48;;;2.13;;
54167;SDS011;40072;50.958;3.592;2022-09-09T07:28:28;18.08;;;2.80;;
54167;SDS011;40072;50.958;3.592;2022-09-09T07:30:56;15.80;;;2.58;;
54167;SDS011;40072;50.958;3.592;2022-09-09T07:33:23;15.35;;;2.65;;
54167;SDS011;40072;50.958;3.592;2022-09-09T07:35:49;10.73;;;2.00;;
54167;SDS011;40072;50.958;3.592;2022-09-09T07:38:15;15.77;;;2.60;;
54167;SDS011;40072;50.958;3.592;2022-09-09T07:40:42;9.10;;;2.30;;
54167;SDS011;40072;50.958;3.592;2022-09-09T07:43:08;12.52;;;2.58;;
54167;SDS011;40072;50.958;3.592;2022-09-09T07:45:34;13.55;;;2.88;;
54167;SDS011;40072;50.958;3.592;2022-09-09T07:48:00;18.98;;;3.28;;
54167;SDS011;40072;50.958;3.592;2022-09-09T07:50:27;18.13;;;3.22;;
54167;SDS011;40072;50.958;3.592;2022-09-09T07:52:53;15.27;;;2.67;;
54167;SDS011;40072;50.958;3.592;2022-09-09T07:55:19;17.02;;;3.25;;
54167;SDS011;40072;50.958;3.592;2022-09-09T07:57:45;14.30;;;2.60;;
54167;SDS011;40072;50.958;3.592;2022-09-09T08:00:11;12.50;;;3.00;;
54167;SDS011;40072;50.958;3.592;2022-09-09T08:02:39;10.50;;;1.83;;
54167;SDS011;40072;50.958;3.592;2022-09-09T08:05:05;17.63;;;2.22;;
54167;SDS011;40072;50.958;3.592;2022-09-09T08:07:31;16.83;;;2.70;;
54167;SDS011;40072;50.958;3.592;2022-09-09T08:09:57;7.88;;;2.50;;
54167;SDS011;40072;50.958;3.592;2022-09-09T08:12:23;7.95;;;2.38;;
54167;SDS011;40072;50.958;3.592;2022-09-09T08:14:49;9.80;;;2.15;;
54167;SDS011;40072;50.958;3.592;2022-09-09T08:17:16;11.00;;;2.10;;
54167;SDS011;40072;50.958;3.592;2022-09-09T08:19:42;14.90;;;2.35;;
54167;SDS011;40072;50.958;3.592;2022-09-09T08:22:09;6.50;;;1.80;;
54167;SDS011;40072;50.958;3.592;2022-09-09T08:24:35;10.55;;;2.28;;
54167;SDS011;40072;50.958;3.592;2022-09-09T08:27:01;9.95;;;1.83;;
54167;SDS011;40072;50.958;3.592;2022-09-09T08:29:26;9.93;;;2.10;;
54167;SDS011;40072;50.958;3.592;2022-09-09T08:31:54;9.27;;;2.15;;
54167;SDS011;40072;50.958;3.592;2022-09-09T08:34:22;9.52;;;1.92;;
54167;SDS011;40072;50.958;3.592;2022-09-09T08:36:49;12.85;;;3.75;;
54167;SDS011;40072;50.958;3.592;2022-09-09T08:39:16;8.90;;;2.20;;
54167;SDS011;40072;50.958;3.592;2022-09-09T08:47:26;8.93;;;1.83;;
54167;SDS011;40072;50.958;3.592;2022-09-09T08:52:39;10.70;;;2.25;;
54167;SDS011;40072;50.958;3.592;2022-09-09T08:55:22;9.63;;;1.80;;
54167;SDS011;40072;50.958;3.592;2022-09-09T08:58:18;9.52;;;1.60;;
54167;SDS011;40072;50.958;3.592;2022-09-09T09:11:50;7.75;;;1.63;;
54167;SDS011;40072;50.958;3.592;2022-09-09T09:17:02;10.23;;;2.40;;
54167;SDS011;40072;50.958;3.592;2022-09-09T09:19:38;6.45;;;1.92;;
54167;SDS011;40072;50.958;3.592;2022-09-09T09:27:35;10.45;;;2.05;;
54167;SDS011;40072;50.958;3.592;2022-09-09T09:30:12;12.23;;;2.58;;
54167;SDS011;40072;50.958;3.592;2022-09-09T09:32:49;10.10;;;2.17;;
54167;SDS011;40072;50.958;3.592;2022-09-09T09:35:21;8.63;;;2.15;;
54167;SDS011;40072;50.958;3.592;2022-09-09T09:37:47;10.02;;;2.00;;
54167;SDS011;40072;50.958;3.592;2022-09-09T09:40:14;6.97;;;1.60;;
54167;SDS011;40072;50.958;3.592;2022-09-09T09:45:27;5.68;;;1.83;;
54167;SDS011;40072;50.958;3.592;2022-09-09T09:48:09;6.13;;;1.33;;
54167;SDS011;40072;50.958;3.592;2022-09-09T09:50:39;6.72;;;1.92;;
54167;SDS011;40072;50.958;3.592;2022-09-09T09:53:21;10.02;;;1.90;;
54167;SDS011;40072;50.958;3.592;2022-09-09T09:55:58;5.35;;;1.65;;
54167;SDS011;40072;50.958;3.592;2022-09-09T09:58:30;7.28;;;1.65;;
54167;SDS011;40072;50.958;3.592;2022-09-09T10:00:59;8.35;;;2.20;;
54167;SDS011;40072;50.958;3.592;2022-09-09T10:05:53;6.53;;;1.65;;
54167;SDS011;40072;50.958;3.592;2022-09-09T10:08:21;4.32;;;1.13;;
54167;SDS011;40072;50.958;3.592;2022-09-09T10:19:37;4.40;;;1.80;;
54167;SDS011;40072;50.958;3.592;2022-09-09T10:22:38;8.25;;;2.35;;
54167;SDS011;40072;50.958;3.592;2022-09-09T10:25:05;5.68;;;1.45;;
54167;SDS011;40072;50.958;3.592;2022-09-09T10:30:23;5.55;;;1.63;;
54167;SDS011;40072;50.958;3.592;2022-09-09T10:33:10;5.18;;;1.63;;
54167;SDS011;40072;50.958;3.592;2022-09-09T10:38:38;3.70;;;1.20;;
54167;SDS011;40072;50.958;3.592;2022-09-09T10:53:14;2.90;;;1.10;;
54167;SDS011;40072;50.958;3.592;2022-09-09T10:56:01;4.03;;;1.10;;
54167;SDS011;40072;50.958;3.592;2022-09-09T11:01:19;5.57;;;1.58;;
54167;SDS011;40072;50.958;3.592;2022-09-09T11:04:19;4.63;;;1.20;;
54167;SDS011;40072;50.958;3.592;2022-09-09T11:06:50;5.43;;;1.20;;
54167;SDS011;40072;50.958;3.592;2022-09-09T11:09:21;5.50;;;1.50;;
54167;SDS011;40072;50.958;3.592;2022-09-09T11:11:54;3.38;;;1.10;;
54167;SDS011;40072;50.958;3.592;2022-09-09T11:14:23;3.53;;;1.10;;
54167;SDS011;40072;50.958;3.592;2022-09-09T11:17:00;5.78;;;1.15;;
54167;SDS011;40072;50.958;3.592;2022-09-09T11:19:38;5.10;;;1.20;;
54167;SDS011;40072;50.958;3.592;2022-09-09T11:22:15;3.15;;;0.98;;
54167;SDS011;40072;50.958;3.592;2022-09-09T11:33:33;4.38;;;1.30;;
54167;SDS011;40072;50.958;3.592;2022-09-09T11:41:50;3.67;;;0.98;;
54167;SDS011;40072;50.958;3.592;2022-09-09T11:44:17;2.30;;;0.70;;
54167;SDS011;40072;50.958;3.592;2022-09-09T11:46:49;3.70;;;0.93;;
54167;SDS011;40072;50.958;3.592;2022-09-09T11:49:26;2.83;;;0.90;;
54167;SDS011;40072;50.958;3.592;2022-09-09T11:51:52;2.85;;;1.00;;
54167;SDS011;40072;50.958;3.592;2022-09-09T11:54:30;4.65;;;1.20;;
54167;SDS011;40072;50.958;3.592;2022-09-09T11:56:57;5.95;;;0.80;;
54167;SDS011;40072;50.958;3.592;2022-09-09T11:59:27;5.05;;;1.08;;
54167;SDS011;40072;50.958;3.592;2022-09-09T12:01:57;4.43;;;1.30;;
54167;SDS011;40072;50.958;3.592;2022-09-09T12:12:34;3.30;;;0.95;;
54167;SDS011;40072;50.958;3.592;2022-09-09T12:17:52;5.03;;;1.42;;
54167;SDS011;40072;50.958;3.592;2022-09-09T12:33:50;3.63;;;1.20;;
54167;SDS011;40072;50.958;3.592;2022-09-09T12:36:24;5.53;;;1.30;;
54167;SDS011;40072;50.958;3.592;2022-09-09T12:38:54;5.90;;;1.30;;
54167;SDS011;40072;50.958;3.592;2022-09-09T12:41:25;2.80;;;1.13;;
54167;SDS011;40072;50.958;3.592;2022-09-09T12:44:03;5.33;;;1.63;;
54167;SDS011;40072;50.958;3.592;2022-09-09T12:46:35;4.97;;;1.50;;
54167;SDS011;40072;50.958;3.592;2022-09-09T12:49:05;3.92;;;0.80;;
54167;SDS011;40072;50.958;3.592;2022-09-09T12:51:53;2.35;;;1.05;;
54167;SDS011;40072;50.958;3.592;2022-09-09T12:54:22;4.60;;;1.10;;
54167;SDS011;40072;50.958;3.592;2022-09-09T12:56:48;4.15;;;1.00;;
54167;SDS011;40072;50.958;3.592;2022-09-09T12:59:25;2.35;;;1.17;;
54167;SDS011;40072;50.958;3.592;2022-09-09T13:02:01;3.35;;;1.13;;
54167;SDS011;40072;50.958;3.592;2022-09-09T13:04:26;3.92;;;1.30;;
54167;SDS011;40072;50.958;3.592;2022-09-09T13:06:52;7.53;;;1.08;;
54167;SDS011;40072;50.958;3.592;2022-09-09T13:09:18;3.33;;;1.17;;
54167;SDS011;40072;50.958;3.592;2022-09-09T13:11:51;2.78;;;0.95;;
54167;SDS011;40072;50.958;3.592;2022-09-09T13:14:34;8.77;;;1.70;;
54167;SDS011;40072;50.958;3.592;2022-09-09T13:17:03;3.97;;;1.30;;
54167;SDS011;40072;50.958;3.592;2022-09-09T13:19:36;4.68;;;1.40;;
54167;SDS011;40072;50.958;3.592;2022-09-09T13:22:13;4.82;;;1.45;;
54167;SDS011;40072;50.958;3.592;2022-09-09T13:25:01;4.15;;;1.33;;
54167;SDS011;40072;50.958;3.592;2022-09-09T13:27:50;6.75;;;1.90;;
54167;SDS011;40072;50.958;3.592;2022-09-09T13:30:25;5.00;;;1.30;;
54167;SDS011;40072;50.958;3.592;2022-09-09T13:35:53;5.35;;;1.52;;
54167;SDS011;40072;50.958;3.592;2022-09-09T13:38:21;3.13;;;1.40;;
54167;SDS011;40072;50.958;3.592;2022-09-09T13:40:54;5.45;;;1.50;;
54167;SDS011;40072;50.958;3.592;2022-09-09T13:43:32;7.95;;;1.52;;
54167;SDS011;40072;50.958;3.592;2022-09-09T13:46:03;5.97;;;2.50;;
54167;SDS011;40072;50.958;3.592;2022-09-09T13:48:31;8.37;;;1.93;;
54167;SDS011;40072;50.958;3.592;2022-09-09T13:51:03;14.02;;;1.98;;
54167;SDS011;40072;50.958;3.592;2022-09-09T13:53:30;5.70;;;1.90;;
54167;SDS011;40072;50.958;3.592;2022-09-09T13:55:56;9.90;;;2.33;;
54167;SDS011;40072;50.958;3.592;2022-09-09T13:58:23;11.30;;;2.17;;
54167;SDS011;40072;50.958;3.592;2022-09-09T14:00:50;10.05;;;2.78;;
54167;SDS011;40072;50.958;3.592;2022-09-09T14:03:17;7.97;;;2.38;;
54167;SDS011;40072;50.958;3.592;2022-09-09T14:05:44;11.15;;;2.65;;
54167;SDS011;40072;50.958;3.592;2022-09-09T14:08:13;19.40;;;3.78;;
54167;SDS011;40072;50.958;3.592;2022-09-09T14:10:46;10.52;;;3.40;;
54167;SDS011;40072;50.958;3.592;2022-09-09T14:13:12;5.28;;;1.17;;
54167;SDS011;40072;50.958;3.592;2022-09-09T14:15:37;4.57;;;1.08;;
54167;SDS011;40072;50.958;3.592;2022-09-09T14:18:03;3.72;;;1.48;;
54167;SDS011;40072;50.958;3.592;2022-09-09T14:20:29;7.85;;;1.60;;
54167;SDS011;40072;50.958;3.592;2022-09-09T14:22:55;5.55;;;1.95;;
54167;SDS011;40072;50.958;3.592;2022-09-09T14:25:22;8.40;;;1.90;;
54167;SDS011;40072;50.958;3.592;2022-09-09T14:27:48;8.15;;;1.95;;
54167;SDS011;40072;50.958;3.592;2022-09-09T14:30:16;6.13;;;2.00;;
54167;SDS011;40072;50.958;3.592;2022-09-09T14:32:41;7.15;;;1.90;;
54167;SDS011;40072;50.958;3.592;2022-09-09T14:35:07;8.30;;;2.45;;
54167;SDS011;40072;50.958;3.592;2022-09-09T14:37:33;5.60;;;2.42;;
54167;SDS011;40072;50.958;3.592;2022-09-09T14:39:59;7.45;;;1.90;;
54167;SDS011;40072;50.958;3.592;2022-09-09T14:42:24;7.15;;;1.70;;
54167;SDS011;40072;50.958;3.592;2022-09-09T14:44:51;5.55;;;1.25;;
54167;SDS011;40072;50.958;3.592;2022-09-09T14:47:17;7.03;;;2.10;;
54167;SDS011;40072;50.958;3.592;2022-09-09T14:49:42;4.70;;;1.58;;
54167;SDS011;40072;50.958;3.592;2022-09-09T14:52:09;5.03;;;1.25;;
54167;SDS011;40072;50.958;3.592;2022-09-09T14:54:35;4.10;;;1.10;;
54167;SDS011;40072;50.958;3.592;2022-09-09T14:57:00;3.55;;;1.42;;
54167;SDS011;40072;50.958;3.592;2022-09-09T14:59:27;4.38;;;1.38;;
54167;SDS011;40072;50.958;3.592;2022-09-09T15:01:52;4.65;;;1.23;;
54167;SDS011;40072;50.958;3.592;2022-09-09T15:04:18;4.57;;;1.35;;
54167;SDS011;40072;50.958;3.592;2022-09-09T15:06:44;2.65;;;0.93;;
54167;SDS011;40072;50.958;3.592;2022-09-09T15:09:13;6.93;;;1.40;;
54167;SDS011;40072;50.958;3.592;2022-09-09T15:11:39;3.50;;;0.90;;
54167;SDS011;40072;50.958;3.592;2022-09-09T15:14:05;4.45;;;1.00;;
54167;SDS011;40072;50.958;3.592;2022-09-09T15:16:32;4.60;;;1.25;;
54167;SDS011;40072;50.958;3.592;2022-09-09T15:18:59;4.10;;;1.00;;
54167;SDS011;40072;50.958;3.592;2022-09-09T15:21:27;2.78;;;0.90;;
54167;SDS011;40072;50.958;3.592;2022-09-09T15:23:54;3.05;;;1.05;;
54167;SDS011;40072;50.958;3.592;2022-09-09T15:26:20;2.88;;;1.00;;
54167;SDS011;40072;50.958;3.592;2022-09-09T15:28:47;5.70;;;1.70;;
54167;SDS011;40072;50.958;3.592;2022-09-09T15:31:18;3.60;;;1.10;;
54167;SDS011;40072;50.958;3.592;2022-09-09T15:33:51;2.53;;;1.10;;
54167;SDS011;40072;50.958;3.592;2022-09-09T15:36:19;6.40;;;1.67;;
54167;SDS011;40072;50.958;3.592;2022-09-09T15:38:46;3.60;;;1.33;;
54167;SDS011;40072;50.958;3.592;2022-09-09T15:41:13;6.63;;;1.45;;
54167;SDS011;40072;50.958;3.592;2022-09-09T15:43:42;5.10;;;1.30;;
54167;SDS011;40072;50.958;3.592;2022-09-09T15:46:21;5.47;;;1.70;;
54167;SDS011;40072;50.958;3.592;2022-09-09T15:48:51;6.55;;;1.70;;
54167;SDS011;40072;50.958;3.592;2022-09-09T15:51:17;3.83;;;1.27;;
54167;SDS011;40072;50.958;3.592;2022-09-09T15:53:43;5.75;;;1.63;;
54167;SDS011;40072;50.958;3.592;2022-09-09T15:56:10;3.28;;;1.40;;
54167;SDS011;40072;50.958;3.592;2022-09-09T15:58:36;5.97;;;1.50;;
54167;SDS011;40072;50.958;3.592;2022-09-09T16:01:06;7.32;;;1.42;;
54167;SDS011;40072;50.958;3.592;2022-09-09T16:03:34;9.85;;;1.60;;
54167;SDS011;40072;50.958;3.592;2022-09-09T16:06:00;7.35;;;1.88;;
54167;SDS011;40072;50.958;3.592;2022-09-09T16:08:31;9.10;;;1.73;;
54167;SDS011;40072;50.958;3.592;2022-09-09T16:11:03;4.30;;;1.35;;
54167;SDS011;40072;50.958;3.592;2022-09-09T16:13:34;3.97;;;1.60;;
54167;SDS011;40072;50.958;3.592;2022-09-09T16:16:01;7.20;;;1.73;;
54167;SDS011;40072;50.958;3.592;2022-09-09T16:18:36;3.60;;;1.80;;
54167;SDS011;40072;50.958;3.592;2022-09-09T16:21:03;3.53;;;1.50;;
54167;SDS011;40072;50.958;3.592;2022-09-09T16:23:30;3.75;;;1.52;;
54167;SDS011;40072;50.958;3.592;2022-09-09T16:26:00;4.15;;;1.63;;
54167;SDS011;40072;50.958;3.592;2022-09-09T16:28:26;4.75;;;1.83;;
54167;SDS011;40072;50.958;3.592;2022-09-09T16:30:52;7.18;;;2.10;;
54167;SDS011;40072;50.958;3.592;2022-09-09T16:33:18;8.43;;;2.25;;
54167;SDS011;40072;50.958;3.592;2022-09-09T16:35:44;4.38;;;1.88;;
54167;SDS011;40072;50.958;3.592;2022-09-09T16:38:10;5.22;;;1.92;;
54167;SDS011;40072;50.958;3.592;2022-09-09T16:40:37;3.83;;;1.88;;
54167;SDS011;40072;50.958;3.592;2022-09-09T16:43:06;5.10;;;1.67;;
54167;SDS011;40072;50.958;3.592;2022-09-09T16:45:32;2.65;;;1.75;;
54167;SDS011;40072;50.958;3.592;2022-09-09T16:47:58;4.93;;;1.40;;
54167;SDS011;40072;50.958;3.592;2022-09-09T16:50:25;6.05;;;1.70;;
54167;SDS011;40072;50.958;3.592;2022-09-09T16:52:51;5.22;;;1.27;;
54167;SDS011;40072;50.958;3.592;2022-09-09T16:55:18;9.30;;;2.10;;
54167;SDS011;40072;50.958;3.592;2022-09-09T16:57:45;6.75;;;1.92;;
54167;SDS011;40072;50.958;3.592;2022-09-09T17:00:14;5.28;;;1.63;;
54167;SDS011;40072;50.958;3.592;2022-09-09T17:02:41;7.45;;;1.80;;
54167;SDS011;40072;50.958;3.592;2022-09-09T17:05:08;9.98;;;2.30;;
54167;SDS011;40072;50.958;3.592;2022-09-09T17:07:34;8.23;;;2.17;;
54167;SDS011;40072;50.958;3.592;2022-09-09T17:10:00;8.95;;;1.88;;
54167;SDS011;40072;50.958;3.592;2022-09-09T17:12:26;6.53;;;2.10;;
54167;SDS011;40072;50.958;3.592;2022-09-09T17:14:52;11.27;;;1.67;;
54167;SDS011;40072;50.958;3.592;2022-09-09T17:17:20;9.57;;;2.65;;
54167;SDS011;40072;50.958;3.592;2022-09-09T17:19:46;11.77;;;2.22;;
54167;SDS011;40072;50.958;3.592;2022-09-09T17:22:12;5.88;;;2.00;;